CGK weather

Soekarno-Hatta International Airport
Jakarta, Banten, Indonesia

Public forecast

Using degrees Celsius for public forecast. Weather courtesy of forecast.io.

METAR (pilot weather report)

Retrieved 2019/04/24 09:30 UTC (17 minutes ago):

WIII 240930Z 14008KT 7000 SCT020 26/23 Q1008 NOSIG

TAF (pilot weather forecast)

Retrieved 2019/04/24 06:00 UTC (4 hours ago):

TAF WIII 240500Z 2406/2512 03010KT 9000 SCT020 TEMPO 2409/2412 3000 -TSRA FEW018CB